Time;durP1;ratioP1;P1;durP2;ratioP2;P2;SDS_P1;SDS_P2;PMS_P1;PMS_P2;Temp;Humidity;BMP_temperature;BMP_pressure;BME280_temperature;BME280_humidity;BME280_pressure;Samples;Min_cycle;Max_cycle;Signal;HPM_P1;HPM_P2
2023/03/16 00:00:35;;;;;;;0.50;0.40;;;13.30;53.60;;;;;;6245863;23;19996;-75
2023/03/16 00:03:02;;;;;;;0.75;0.55;;;13.30;54.30;;;;;;6246014;23;20415;-76
2023/03/16 00:05:28;;;;;;;3.35;0.63;;;13.30;54.30;;;;;;6246075;23;20000;-76
2023/03/16 00:07:53;;;;;;;1.20;0.50;;;13.30;53.40;;;;;;6242475;23;20008;-76
2023/03/16 00:10:25;;;;;;;1.50;0.65;;;13.30;52.50;;;;;;6243791;23;20000;-75
2023/03/16 00:12:52;;;;;;;1.33;0.70;;;13.30;51.80;;;;;;6244894;23;19996;-75
2023/03/16 00:15:19;;;;;;;1.00;0.65;;;13.30;51.70;;;;;;6244542;23;20004;-75
2023/03/16 00:17:47;;;;;;;1.08;0.52;;;13.30;52.10;;;;;;6217593;23;20004;-75
2023/03/16 00:20:14;;;;;;;1.40;0.40;;;13.30;52.40;;;;;;6245833;23;20054;-76
2023/03/16 00:22:40;;;;;;;1.25;0.70;;;13.30;51.80;;;;;;6245284;23;20004;-75
2023/03/16 00:25:08;;;;;;;1.85;0.60;;;13.30;51.80;;;;;;6218933;23;20011;-76
2023/03/16 00:27:33;;;;;;;0.52;0.30;;;13.20;51.80;;;;;;6245090;23;20004;-76
2023/03/16 00:30:02;;;;;;;1.02;0.50;;;13.30;52.10;;;;;;6244953;23;19996;-76
2023/03/16 00:32:33;;;;;;;0.70;0.38;;;13.20;52.10;;;;;;6245636;23;20441;-76
2023/03/16 00:35:03;;;;;;;2.33;0.55;;;13.30;52.50;;;;;;6246456;23;20000;-76
2023/03/16 00:37:29;;;;;;;0.90;0.50;;;13.20;52.40;;;;;;6219270;23;20008;-76
2023/03/16 00:39:55;;;;;;;0.90;0.40;;;13.20;52.30;;;;;;6246154;23;20084;-76
2023/03/16 00:42:26;;;;;;;0.80;0.60;;;13.20;52.60;;;;;;6246249;23;20100;-76
2023/03/16 00:44:56;;;;;;;2.22;0.60;;;13.20;53.00;;;;;;6246271;23;20001;-76
2023/03/16 00:47:25;;;;;;;0.75;0.30;;;13.20;53.50;;;;;;6246762;23;20000;-77
2023/03/16 00:49:51;;;;;;;1.73;0.60;;;13.20;54.20;;;;;;6246304;23;20080;-76
2023/03/16 00:52:17;;;;;;;1.85;0.55;;;13.10;54.80;;;;;;6245775;23;20028;-77
2023/03/16 00:54:44;;;;;;;0.52;0.40;;;13.10;54.90;;;;;;6245739;23;20059;-77
2023/03/16 00:57:17;;;;;;;0.90;0.47;;;13.10;55.60;;;;;;6246335;23;20028;-77
2023/03/16 00:59:43;;;;;;;1.60;0.60;;;13.00;55.90;;;;;;6245902;23;20066;-77
2023/03/16 01:02:10;;;;;;;0.95;0.50;;;13.00;56.00;;;;;;6245922;23;20350;-76
2023/03/16 01:04:36;;;;;;;1.17;0.63;;;12.90;56.40;;;;;;6245684;23;20039;-76
2023/03/16 01:07:03;;;;;;;8.75;0.55;;;12.90;57.10;;;;;;6246439;23;19996;-75
2023/03/16 01:09:29;;;;;;;1.00;0.70;;;12.80;57.00;;;;;;6244963;23;20006;-75
2023/03/16 01:11:54;;;;;;;0.80;0.50;;;12.80;57.20;;;;;;6245608;23;20075;-76
2023/03/16 01:14:21;;;;;;;1.38;0.70;;;12.70;57.60;;;;;;6245004;23;20058;-76
2023/03/16 01:16:47;;;;;;;2.15;0.80;;;12.70;57.60;;;;;;6245043;23;20007;-76
2023/03/16 01:19:13;;;;;;;1.88;1.02;;;12.50;57.80;;;;;;6244697;23;20000;-75
2023/03/16 01:21:41;;;;;;;3.38;1.17;;;12.50;57.90;;;;;;6245406;23;20464;-77
2023/03/16 01:24:08;;;;;;;1.55;1.10;;;12.40;58.20;;;;;;6244659;23;20015;-77
2023/03/16 01:26:34;;;;;;;2.88;1.20;;;12.30;58.40;;;;;;6245397;23;20007;-76
2023/03/16 01:29:01;;;;;;;2.88;1.70;;;12.30;58.90;;;;;;6245477;23;20336;-77
2023/03/16 01:31:28;;;;;;;1.88;1.52;;;12.30;59.30;;;;;;6245103;23;20004;-76
2023/03/16 01:33:54;;;;;;;2.95;1.60;;;12.30;59.60;;;;;;6244743;23;20000;-77
2023/03/16 01:36:20;;;;;;;2.95;1.20;;;12.30;60.00;;;;;;6217418;23;20008;-76
2023/03/16 01:38:46;;;;;;;2.95;1.40;;;12.20;60.10;;;;;;6218364;23;20018;-77
2023/03/16 01:41:13;;;;;;;2.97;1.30;;;12.20;60.30;;;;;;6245020;23;20458;-76
2023/03/16 01:43:40;;;;;;;3.63;1.48;;;12.20;60.40;;;;;;6217363;23;20008;-76
2023/03/16 01:46:06;;;;;;;2.15;1.10;;;12.20;60.70;;;;;;6245332;23;20000;-77
2023/03/16 01:48:53;;;;;;;5.00;1.40;;;12.10;61.00;;;;;;6245338;23;20031;-77
2023/03/16 01:51:35;;;;;;;2.38;1.27;;;12.10;61.20;;;;;;6167694;23;20004;-77
2023/03/16 01:54:06;;;;;;;2.00;1.40;;;12.10;61.60;;;;;;6244353;23;20000;-77
2023/03/16 01:56:51;;;;;;;5.07;1.75;;;12.10;61.80;;;;;;6244361;23;20067;-77
2023/03/16 01:59:23;;;;;;;2.05;1.42;;;12.00;62.00;;;;;;6244868;23;20057;-77
2023/03/16 02:01:50;;;;;;;1.73;1.30;;;12.00;62.20;;;;;;6244041;23;20004;-77
2023/03/16 02:04:41;;;;;;;2.75;1.70;;;12.00;62.40;;;;;;6217792;23;20462;-78
2023/03/16 02:07:07;;;;;;;;;;;11.90;62.50;;;;;;6245617;23;20015;-78
2023/03/16 02:09:37;;;;;;;3.05;1.70;;;11.90;62.70;;;;;;6245522;23;19930;-77
2023/03/16 02:12:04;;;;;;;2.30;1.63;;;11.80;62.90;;;;;;6245340;23;20012;-77
2023/03/16 02:14:30;;;;;;;5.65;1.70;;;11.80;63.00;;;;;;6218290;23;20008;-77
2023/03/16 02:16:56;;;;;;;3.03;1.75;;;11.80;63.10;;;;;;6244070;23;20008;-77
2023/03/16 02:19:38;;;;;;;4.40;1.90;;;11.80;63.30;;;;;;6244493;23;20053;-78
2023/03/16 02:22:07;;;;;;;2.75;1.90;;;11.70;63.30;;;;;;6243557;23;20444;-78
2023/03/16 02:24:34;;;;;;;3.67;1.73;;;11.80;63.30;;;;;;6244925;23;20000;-77
2023/03/16 02:27:09;;;;;;;4.80;1.73;;;11.70;63.30;;;;;;6218082;23;20402;-77
2023/03/16 02:29:55;;;;;;;2.72;1.73;;;11.70;63.50;;;;;;6245726;23;20000;-76
2023/03/16 02:32:23;;;;;;;3.15;1.80;;;11.70;63.50;;;;;;6217485;23;20031;-76
2023/03/16 02:34:49;;;;;;;4.90;2.10;;;11.60;63.40;;;;;;6245284;23;20075;-77
2023/03/16 02:37:14;;;;;;;2.85;2.28;;;11.60;62.60;;;;;;6245470;23;20004;-77
2023/03/16 02:39:42;;;;;;;3.75;2.00;;;11.60;61.60;;;;;;6245376;23;20441;-77
2023/03/16 02:42:14;;;;;;;6.85;2.42;;;11.60;61.00;;;;;;6245267;23;20066;-78
2023/03/16 02:44:42;;;;;;;2.70;2.00;;;11.60;61.20;;;;;;6244621;23;20953;-76
2023/03/16 02:47:17;;;;;;;3.60;1.88;;;11.60;60.70;;;;;;6245167;23;20008;-76
2023/03/16 02:49:45;;;;;;;3.20;2.05;;;11.60;59.90;;;;;;6245310;23;20006;-76
2023/03/16 02:52:11;;;;;;;2.88;2.20;;;11.50;59.40;;;;;;6245749;23;20007;-77
2023/03/16 02:54:37;;;;;;;3.63;2.30;;;11.50;59.10;;;;;;6245601;23;20000;-76
2023/03/16 02:57:04;;;;;;;4.95;2.42;;;11.50;58.90;;;;;;6244874;23;20004;-76
2023/03/16 02:59:30;;;;;;;3.42;2.13;;;11.50;58.70;;;;;;6245060;23;20004;-76
2023/03/16 03:01:55;;;;;;;4.07;2.50;;;11.40;58.50;;;;;;6245132;23;20007;-76
2023/03/16 03:04:23;;;;;;;3.75;2.40;;;11.40;58.80;;;;;;6245731;23;20004;-76
2023/03/16 03:06:50;;;;;;;3.35;2.30;;;11.40;59.10;;;;;;6244266;23;20353;-76
2023/03/16 03:09:17;;;;;;;4.55;2.35;;;11.40;58.90;;;;;;6245208;23;20007;-76
2023/03/16 03:11:43;;;;;;;4.53;2.75;;;11.40;58.00;;;;;;6244289;23;19996;-75
2023/03/16 03:14:09;;;;;;;3.78;2.70;;;11.50;57.30;;;;;;6244521;23;20008;-76
2023/03/16 03:16:35;;;;;;;5.60;3.10;;;11.50;56.60;;;;;;6244784;23;20007;-75
2023/03/16 03:19:01;;;;;;;4.18;2.53;;;11.50;56.10;;;;;;6244302;23;20008;-76
2023/03/16 03:21:27;;;;;;;3.58;2.70;;;11.50;55.70;;;;;;6216841;23;20082;-75
2023/03/16 03:23:53;;;;;;;4.32;2.38;;;11.50;55.00;;;;;;6244200;23;20000;-76
2023/03/16 03:26:20;;;;;;;7.50;2.65;;;11.50;54.40;;;;;;6244755;23;20005;-75
2023/03/16 03:28:46;;;;;;;3.67;2.70;;;11.50;53.70;;;;;;6244280;23;19996;-76
2023/03/16 03:31:16;;;;;;;3.47;2.40;;;11.50;53.10;;;;;;6244189;23;19996;-77
2023/03/16 03:33:43;;;;;;;4.22;2.90;;;11.50;52.50;;;;;;6244387;23;20008;-76
2023/03/16 03:36:10;;;;;;;5.78;2.20;;;11.50;52.10;;;;;;6218529;23;20004;-76
2023/03/16 03:38:36;;;;;;;4.18;2.28;;;11.50;51.60;;;;;;6246218;23;20223;-76
2023/03/16 03:41:03;;;;;;;3.08;1.88;;;11.40;51.20;;;;;;6219284;23;20047;-76
2023/03/16 03:43:29;;;;;;;3.17;2.30;;;11.50;51.20;;;;;;6246831;23;20040;-77
2023/03/16 03:45:59;;;;;;;5.78;2.58;;;11.40;51.10;;;;;;6246006;23;20071;-77
2023/03/16 03:48:25;;;;;;;6.95;2.08;;;11.40;51.00;;;;;;6246461;23;20051;-76
2023/03/16 03:50:52;;;;;;;2.75;2.10;;;11.40;50.80;;;;;;6247101;23;20004;-77
2023/03/16 03:53:18;;;;;;;3.55;2.10;;;11.40;50.50;;;;;;6246346;23;19997;-77
2023/03/16 03:55:44;;;;;;;2.67;2.17;;;11.40;50.30;;;;;;6246095;23;20004;-77
2023/03/16 03:58:10;;;;;;;5.05;2.25;;;11.40;50.10;;;;;;6246315;23;20092;-77
2023/03/16 04:00:37;;;;;;;7.30;2.80;;;11.30;49.90;;;;;;6219288;23;20004;-76
2023/03/16 04:03:03;;;;;;;4.50;2.50;;;11.40;49.90;;;;;;6246347;23;20031;-77
2023/03/16 04:05:29;;;;;;;4.13;2.63;;;11.30;50.20;;;;;;6219474;23;20004;-76
2023/03/16 04:07:56;;;;;;;2.75;1.98;;;11.30;50.50;;;;;;6218931;23;20004;-76
2023/03/16 04:10:27;;;;;;;3.65;2.35;;;11.30;50.10;;;;;;6246273;23;20046;-76
2023/03/16 04:12:54;;;;;;;3.55;2.40;;;11.30;50.00;;;;;;6245462;23;20000;-76
2023/03/16 04:15:21;;;;;;;5.28;2.92;;;11.30;50.30;;;;;;6245494;23;20071;-77
2023/03/16 04:17:48;;;;;;;6.78;3.35;;;11.30;50.20;;;;;;6246634;23;20008;-77
2023/03/16 04:20:18;;;;;;;8.10;4.13;;;11.30;50.00;;;;;;6218226;23;20042;-77
2023/03/16 04:22:44;;;;;;;7.03;4.30;;;11.30;49.70;;;;;;6218697;23;20090;-77
2023/03/16 04:25:11;;;;;;;6.25;4.22;;;11.30;49.30;;;;;;6245586;23;20004;-77
2023/03/16 04:27:37;;;;;;;5.95;3.90;;;11.20;50.20;;;;;;6246464;23;20075;-76
2023/03/16 04:30:05;;;;;;;8.38;5.50;;;11.20;49.50;;;;;;6246167;23;20058;-77
2023/03/16 04:32:32;;;;;;;5.75;4.38;;;11.20;49.50;;;;;;6219394;23;20083;-77
2023/03/16 04:34:57;;;;;;;6.47;4.25;;;11.10;49.80;;;;;;6246094;23;20003;-77
2023/03/16 04:37:23;;;;;;;5.28;3.88;;;11.10;50.10;;;;;;6246383;23;20346;-77
2023/03/16 04:39:49;;;;;;;5.93;4.50;;;11.10;50.30;;;;;;6246282;23;20296;-77
2023/03/16 04:42:14;;;;;;;5.07;3.83;;;11.10;50.30;;;;;;6246233;23;20023;-77
2023/03/16 04:44:42;;;;;;;7.82;4.50;;;11.10;50.10;;;;;;6246087;23;20000;-77
2023/03/16 04:47:09;;;;;;;6.30;3.70;;;11.10;50.00;;;;;;6245618;23;20050;-76
2023/03/16 04:49:35;;;;;;;5.20;3.42;;;11.10;49.70;;;;;;6219222;23;20015;-77
2023/03/16 04:52:00;;;;;;;4.47;2.92;;;11.10;49.90;;;;;;6247016;23;20008;-76
2023/03/16 04:54:26;;;;;;;5.57;2.88;;;11.00;50.00;;;;;;6246078;23;20011;-76
2023/03/16 04:56:52;;;;;;;4.93;3.03;;;11.00;50.10;;;;;;6246160;23;20006;-76
2023/03/16 04:59:18;;;;;;;5.43;2.83;;;11.00;50.10;;;;;;6246768;23;20008;-76
2023/03/16 05:01:43;;;;;;;6.85;3.45;;;11.00;50.30;;;;;;6246629;23;20430;-77
2023/03/16 05:04:09;;;;;;;4.57;3.15;;;10.90;50.30;;;;;;6245603;23;20011;-76
2023/03/16 05:06:35;;;;;;;4.03;2.78;;;10.90;50.40;;;;;;6246086;23;20330;-76
2023/03/16 05:09:00;;;;;;;4.60;3.15;;;10.90;50.20;;;;;;6245344;23;19996;-76
2023/03/16 05:11:27;;;;;;;5.95;3.05;;;10.90;50.20;;;;;;6246371;23;20406;-75
2023/03/16 05:13:52;;;;;;;6.07;3.45;;;11.00;50.40;;;;;;6245497;23;20011;-76
2023/03/16 05:16:18;;;;;;;4.07;2.63;;;10.90;50.50;;;;;;6245479;23;20426;-75
2023/03/16 05:18:44;;;;;;;6.30;3.03;;;10.90;50.50;;;;;;6244543;23;20000;-76
2023/03/16 05:21:09;;;;;;;4.90;2.83;;;10.90;50.50;;;;;;6244348;23;20000;-75
2023/03/16 05:23:35;;;;;;;5.07;3.67;;;11.00;50.50;;;;;;6245913;23;20004;-74
2023/03/16 05:26:01;;;;;;;6.97;3.75;;;10.90;50.30;;;;;;6245867;23;20091;-74
2023/03/16 05:28:27;;;;;;;5.72;3.63;;;11.00;50.30;;;;;;6245505;23;20027;-74
2023/03/16 05:30:53;;;;;;;5.40;3.20;;;11.00;50.40;;;;;;6245698;23;20001;-75
2023/03/16 05:33:20;;;;;;;5.63;2.80;;;11.00;50.50;;;;;;6244633;23;20004;-74
2023/03/16 05:35:46;;;;;;;6.82;3.03;;;11.00;50.50;;;;;;6243391;23;20479;-74
2023/03/16 05:38:11;;;;;;;4.57;2.88;;;11.00;50.60;;;;;;6243635;23;20074;-74
2023/03/16 05:40:37;;;;;;;3.83;2.47;;;11.00;50.80;;;;;;6245859;23;20007;-75
2023/03/16 05:43:03;;;;;;;8.60;2.85;;;11.00;51.00;;;;;;6218475;23;20338;-75
2023/03/16 05:45:29;;;;;;;4.00;2.67;;;11.00;51.20;;;;;;6244858;23;20092;-75
2023/03/16 05:47:55;;;;;;;5.03;2.47;;;11.00;51.20;;;;;;6244847;23;20015;-75
2023/03/16 05:50:21;;;;;;;4.05;2.08;;;11.00;51.50;;;;;;6244351;23;20397;-76
2023/03/16 05:52:47;;;;;;;3.30;2.30;;;11.00;52.10;;;;;;6245130;23;20000;-75
2023/03/16 05:55:15;;;;;;;2.85;2.20;;;11.00;52.40;;;;;;6245509;23;20004;-76
2023/03/16 05:57:41;;;;;;;3.05;2.20;;;11.00;51.80;;;;;;6217694;23;20362;-78
2023/03/16 06:00:14;;;;;;;9.05;2.70;;;11.00;51.40;;;;;;6244446;23;20438;-78
2023/03/16 06:02:47;;;;;;;6.28;2.30;;;11.10;51.40;;;;;;6244531;23;20004;-77
2023/03/16 06:05:14;;;;;;;3.80;2.20;;;11.00;51.50;;;;;;6245536;23;20054;-76
2023/03/16 06:07:40;;;;;;;4.57;2.50;;;11.00;51.90;;;;;;6245054;23;20000;-76
2023/03/16 06:10:07;;;;;;;5.88;2.67;;;11.00;52.20;;;;;;6244966;23;20000;-76
2023/03/16 06:12:33;;;;;;;5.68;2.15;;;11.10;52.10;;;;;;6244820;23;20008;-76
2023/03/16 06:15:01;;;;;;;7.65;2.25;;;11.10;55.40;;;;;;6245004;23;20311;-76
2023/03/16 06:17:27;;;;;;;4.07;2.58;;;11.20;52.80;;;;;;6243404;23;20115;-76
2023/03/16 06:19:52;;;;;;;6.30;2.28;;;11.20;52.90;;;;;;6245177;23;20027;-76
2023/03/16 06:22:18;;;;;;;2.65;1.90;;;11.20;52.60;;;;;;6244455;23;20020;-76
2023/03/16 06:24:44;;;;;;;3.30;2.00;;;11.30;52.90;;;;;;6244052;23;20031;-76
2023/03/16 06:27:10;;;;;;;3.47;1.98;;;11.30;52.60;;;;;;6243491;23;20035;-76
2023/03/16 06:29:36;;;;;;;4.05;1.90;;;11.30;52.30;;;;;;6244357;23;20028;-76
2023/03/16 06:32:01;;;;;;;4.53;2.38;;;11.30;52.30;;;;;;6243767;23;20026;-75
2023/03/16 06:34:27;;;;;;;3.15;2.22;;;11.30;52.50;;;;;;6242574;23;20008;-77
2023/03/16 06:36:53;;;;;;;3.35;2.33;;;11.30;52.40;;;;;;6241575;23;20044;-77
2023/03/16 06:39:18;;;;;;;4.85;1.98;;;11.30;52.20;;;;;;6240916;23;20028;-77
2023/03/16 06:41:44;;;;;;;2.65;2.10;;;11.30;52.30;;;;;;6215481;23;20371;-77
2023/03/16 06:44:11;;;;;;;3.50;2.20;;;11.40;52.30;;;;;;6243496;23;20392;-77
2023/03/16 06:46:37;;;;;;;3.30;2.40;;;11.40;52.40;;;;;;6216955;23;20009;-76
2023/03/16 06:49:03;;;;;;;2.88;2.35;;;11.30;52.50;;;;;;6243999;23;20018;-78
2023/03/16 06:51:30;;;;;;;5.80;2.28;;;11.40;53.00;;;;;;6244748;23;20075;-76
2023/03/16 06:53:56;;;;;;;6.35;2.30;;;11.40;53.60;;;;;;6245475;23;20001;-77
2023/03/16 06:56:23;;;;;;;3.95;2.28;;;11.40;53.60;;;;;;6244248;23;20075;-76
2023/03/16 06:58:48;;;;;;;3.92;2.58;;;11.40;53.40;;;;;;6243703;23;20008;-74
2023/03/16 07:01:29;;;;;;;3.85;2.25;;;11.50;53.30;;;;;;6218008;23;20525;-74
2023/03/16 07:03:54;;;;;;;;;;;11.60;53.40;;;;;;6245213;23;20000;-76
2023/03/16 07:06:20;;;;;;;4.40;2.38;;;11.60;53.10;;;;;;6245697;23;19911;-76
2023/03/16 07:08:47;;;;;;;3.60;2.35;;;11.70;53.00;;;;;;6244974;23;20004;-76
2023/03/16 07:11:13;;;;;;;5.45;2.30;;;11.80;53.20;;;;;;6245375;23;20003;-76
2023/03/16 07:13:39;;;;;;;5.70;2.10;;;11.60;52.00;;;;;;6220556;23;20058;-76
2023/03/16 07:16:06;;;;;;;2.95;2.10;;;11.60;52.30;;;;;;6247512;23;19996;-76
2023/03/16 07:18:31;;;;;;;3.83;2.45;;;11.70;52.30;;;;;;6247755;23;20003;-76
2023/03/16 07:20:57;;;;;;;4.13;2.20;;;11.80;52.00;;;;;;6247403;23;20000;-76
2023/03/16 07:23:23;;;;;;;3.75;2.08;;;11.90;51.10;;;;;;6247704;23;19996;-76
2023/03/16 07:25:50;;;;;;;3.65;2.03;;;11.90;50.40;;;;;;6219462;23;20330;-77
2023/03/16 07:28:19;;;;;;;5.28;2.25;;;11.90;49.90;;;;;;6220584;23;20031;-78
2023/03/16 07:30:46;;;;;;;7.20;1.80;;;11.90;58.10;;;;;;6247197;23;20423;-77
2023/03/16 07:33:11;;;;;;;5.75;1.60;;;12.20;55.50;;;;;;6246899;23;20007;-78
2023/03/16 07:35:37;;;;;;;3.33;1.60;;;12.30;52.70;;;;;;6246715;23;20322;-77
2023/03/16 07:38:03;;;;;;;2.97;1.42;;;12.40;51.40;;;;;;6220628;23;20011;-78
2023/03/16 07:40:29;;;;;;;3.00;1.70;;;12.50;50.50;;;;;;6247624;23;20088;-80
2023/03/16 07:42:55;;;;;;;4.15;1.60;;;12.50;50.20;;;;;;6247128;23;20039;-79
2023/03/16 07:45:20;;;;;;;7.72;1.77;;;12.60;49.80;;;;;;6245098;23;20070;-79
2023/03/16 07:47:46;;;;;;;4.82;1.98;;;12.60;49.50;;;;;;6245852;23;20049;-79
2023/03/16 07:50:15;;;;;;;2.58;1.45;;;12.70;49.50;;;;;;6245672;23;20007;-78
2023/03/16 07:52:40;;;;;;;2.05;1.30;;;12.80;49.40;;;;;;6245591;23;20008;-79
2023/03/16 07:55:06;;;;;;;3.08;1.60;;;12.80;49.30;;;;;;6245631;23;20008;-77
2023/03/16 07:57:32;;;;;;;3.35;1.35;;;12.80;49.50;;;;;;6245485;23;20037;-78
2023/03/16 07:59:58;;;;;;;3.22;1.50;;;12.90;50.10;;;;;;6245699;23;20023;-78
2023/03/16 08:02:24;;;;;;;2.42;1.23;;;13.00;50.10;;;;;;6245928;23;20464;-77
2023/03/16 08:04:50;;;;;;;2.30;1.33;;;13.10;50.30;;;;;;6246155;23;20000;-75
2023/03/16 08:07:16;;;;;;;3.92;1.48;;;13.10;49.30;;;;;;6246521;23;20495;-74
2023/03/16 08:09:42;;;;;;;1.30;0.90;;;13.20;50.20;;;;;;6246608;23;20423;-75
2023/03/16 08:12:10;;;;;;;2.30;0.90;;;13.20;50.20;;;;;;6246539;23;20003;-75
2023/03/16 08:14:36;;;;;;;1.88;1.20;;;13.30;50.00;;;;;;6247172;23;20031;-75
2023/03/16 08:17:02;;;;;;;2.50;1.00;;;13.30;49.40;;;;;;6247004;23;20000;-76
2023/03/16 08:19:28;;;;;;;1.77;0.93;;;13.40;49.60;;;;;;6246846;23;20028;-75
2023/03/16 08:21:55;;;;;;;1.73;0.82;;;13.60;49.70;;;;;;6247270;23;20050;-76
2023/03/16 08:24:21;;;;;;;1.67;0.95;;;13.70;49.50;;;;;;6246788;23;20312;-76
2023/03/16 08:26:46;;;;;;;1.42;0.85;;;13.80;49.30;;;;;;6247393;23;20000;-75
2023/03/16 08:29:12;;;;;;;1.50;0.80;;;13.90;48.80;;;;;;6246885;23;20003;-76
2023/03/16 08:31:38;;;;;;;2.83;1.00;;;14.00;48.00;;;;;;6219857;23;20000;-76
2023/03/16 08:34:05;;;;;;;1.02;0.63;;;14.00;46.20;;;;;;6246925;23;20383;-76
2023/03/16 08:36:30;;;;;;;1.98;0.73;;;14.10;48.30;;;;;;6246903;23;20050;-76
2023/03/16 08:38:56;;;;;;;1.13;0.73;;;14.20;48.60;;;;;;6219850;23;20422;-76
2023/03/16 08:41:22;;;;;;;1.52;0.70;;;14.20;47.80;;;;;;6247095;23;20063;-76
2023/03/16 08:43:48;;;;;;;1.73;0.80;;;14.40;48.30;;;;;;6246985;23;20058;-76
2023/03/16 08:46:16;;;;;;;0.90;0.60;;;14.40;47.70;;;;;;6247011;23;20028;-76
2023/03/16 08:48:41;;;;;;;1.58;0.65;;;14.50;47.80;;;;;;6247030;23;20039;-78
2023/03/16 08:51:09;;;;;;;0.90;0.55;;;14.60;47.20;;;;;;6246960;23;20410;-79
2023/03/16 08:53:38;;;;;;;1.42;0.80;;;14.70;47.30;;;;;;6247148;23;20452;-79
2023/03/16 08:56:05;;;;;;;1.77;0.73;;;14.80;45.90;;;;;;6246921;23;19996;-79
2023/03/16 08:58:33;;;;;;;1.15;0.60;;;14.90;46.90;;;;;;6246933;23;20354;-80
2023/03/16 09:00:59;;;;;;;1.52;0.63;;;15.00;46.90;;;;;;6246937;23;20000;-79
2023/03/16 09:03:26;;;;;;;2.28;0.57;;;15.10;46.90;;;;;;6246632;23;19996;-79
2023/03/16 09:05:51;;;;;;;1.63;1.00;;;15.20;47.00;;;;;;6246487;23;20008;-79
2023/03/16 09:08:18;;;;;;;2.58;0.70;;;15.30;47.30;;;;;;6247629;23;20027;-79
2023/03/16 09:10:43;;;;;;;0.85;0.65;;;15.40;47.60;;;;;;6247070;23;20387;-79
2023/03/16 09:13:10;;;;;;;2.05;0.60;;;15.50;45.70;;;;;;6246862;23;20003;-79
2023/03/16 09:15:37;;;;;;;0.63;0.50;;;15.60;46.20;;;;;;6246306;23;20060;-79
2023/03/16 09:18:04;;;;;;;0.85;0.55;;;15.70;46.00;;;;;;6220002;23;20314;-79
2023/03/16 09:20:30;;;;;;;1.35;0.45;;;15.80;45.90;;;;;;6246693;23;20000;-79
2023/03/16 09:22:56;;;;;;;0.52;0.43;;;15.90;45.20;;;;;;6246695;23;20078;-79
2023/03/16 09:25:24;;;;;;;1.95;0.60;;;16.00;45.00;;;;;;6246707;23;20399;-79
2023/03/16 09:27:50;;;;;;;4.53;1.10;;;16.10;45.10;;;;;;6246549;23;20075;-79
2023/03/16 09:30:16;;;;;;;1.65;0.70;;;16.30;45.40;;;;;;6246497;23;20011;-79
2023/03/16 09:32:42;;;;;;;1.17;0.60;;;16.40;45.10;;;;;;6246632;23;20000;-79
2023/03/16 09:35:08;;;;;;;0.95;0.50;;;16.60;44.80;;;;;;6246187;23;20000;-79
2023/03/16 09:37:34;;;;;;;4.43;0.77;;;16.70;44.50;;;;;;6246724;23;20012;-79
2023/03/16 09:40:00;;;;;;;0.75;0.50;;;16.80;44.40;;;;;;6246686;23;20000;-80
2023/03/16 09:42:28;;;;;;;0.85;0.55;;;16.90;43.90;;;;;;6246622;23;20027;-79
2023/03/16 09:45:00;;;;;;;1.25;0.60;;;16.90;43.10;;;;;;6246277;23;20028;-79
2023/03/16 09:47:29;;;;;;;1.52;0.60;;;17.00;41.80;;;;;;6246641;23;20449;-79
2023/03/16 09:49:58;;;;;;;0.80;0.50;;;17.10;42.10;;;;;;6219477;23;20011;-79
2023/03/16 09:52:59;;;;;;;1.00;0.50;;;17.20;42.40;;;;;;6246273;23;20000;-79
2023/03/16 09:55:26;;;;;;;0.88;0.55;;;17.30;42.50;;;;;;6246724;23;20007;-80
2023/03/16 09:57:53;;;;;;;1.63;0.65;;;17.50;42.20;;;;;;6246615;23;20004;-80
2023/03/16 10:00:44;;;;;;;0.80;0.50;;;17.60;41.90;;;;;;6246331;23;20015;-79
2023/03/16 10:03:55;;;;;;;2.95;0.93;;;17.70;40.60;;;;;;6178839;23;20011;-79
2023/03/16 10:06:22;;;;;;;1.00;0.70;;;17.80;39.90;;;;;;6191847;23;20008;-79
2023/03/16 10:09:05;;;;;;;1.25;0.75;;;17.80;39.80;;;;;;6246186;23;20375;-79
2023/03/16 10:11:41;;;;;;;1.48;0.47;;;17.80;40.60;;;;;;6219234;23;20053;-79
2023/03/16 10:14:25;;;;;;;1.13;0.80;;;17.90;41.10;;;;;;6246453;23;20004;-79
2023/03/16 10:16:58;;;;;;;1.15;0.52;;;18.10;40.80;;;;;;6218960;23;20004;-79
2023/03/16 10:19:46;;;;;;;1.40;0.63;;;18.20;40.50;;;;;;6246433;23;20012;-79
2023/03/16 10:22:20;;;;;;;0.85;0.47;;;18.30;40.00;;;;;;6245961;23;20007;-79
2023/03/16 10:25:17;;;;;;;0.40;0.40;;;18.50;39.70;;;;;;6245941;23;20007;-79
2023/03/16 10:27:44;;;;;;;0.65;0.45;;;18.50;38.80;;;;;;6246221;23;20000;-79
2023/03/16 10:30:32;;;;;;;0.88;0.43;;;18.40;38.90;;;;;;6246081;23;20062;-79
2023/03/16 10:33:04;;;;;;;2.53;0.80;;;18.40;39.90;;;;;;6246360;23;20001;-79
2023/03/16 10:36:08;;;;;;;1.40;0.75;;;18.50;39.50;;;;;;6245775;23;20489;-80
2023/03/16 10:38:39;;;;;;;2.75;0.75;;;18.70;40.00;;;;;;6245263;23;20000;-79
2023/03/16 10:41:17;;;;;;;2.33;0.80;;;18.80;40.00;;;;;;6244895;23;20010;-79
2023/03/16 10:43:51;;;;;;;7.05;0.63;;;18.80;38.60;;;;;;6245664;23;20008;-79
2023/03/16 10:46:17;;;;;;;0.52;0.47;;;18.90;40.10;;;;;;6247983;23;20023;-79
2023/03/16 10:48:53;;;;;;;0.98;0.60;;;19.00;40.50;;;;;;6248115;23;20000;-79
2023/03/16 10:51:24;;;;;;;1.63;0.80;;;19.10;40.80;;;;;;6248107;23;19996;-79
2023/03/16 10:53:51;;;;;;;2.90;0.60;;;19.30;40.70;;;;;;6248478;23;20011;-80
2023/03/16 10:56:26;;;;;;;1.08;0.65;;;19.50;39.60;;;;;;6247666;23;20003;-78
2023/03/16 10:58:52;;;;;;;1.27;0.80;;;19.40;39.30;;;;;;6247877;23;20000;-79
2023/03/16 11:01:27;;;;;;;2.47;0.75;;;19.50;39.40;;;;;;6247902;23;20050;-79
2023/03/16 11:03:55;;;;;;;0.63;0.60;;;19.60;39.40;;;;;;6220583;23;20004;-79
2023/03/16 11:06:29;;;;;;;1.77;0.75;;;19.80;39.80;;;;;;6247629;23;20004;-79
2023/03/16 11:09:07;;;;;;;1.85;0.95;;;20.00;39.90;;;;;;6247128;23;20502;-79
2023/03/16 11:11:33;;;;;;;0.85;0.70;;;20.10;39.50;;;;;;6247090;23;20000;-79
2023/03/16 11:14:03;;;;;;;1.88;0.80;;;20.10;39.50;;;;;;6247192;23;20007;-79
2023/03/16 11:16:55;;;;;;;0.90;0.70;;;20.20;39.50;;;;;;6220788;23;20083;-79
2023/03/16 11:19:26;;;;;;;2.60;0.73;;;20.30;39.70;;;;;;6247224;23;20015;-79
2023/03/16 11:22:01;;;;;;;2.85;0.95;;;20.40;39.70;;;;;;6247503;23;20004;-79
2023/03/16 11:24:48;;;;;;;5.45;0.98;;;20.50;39.90;;;;;;6247137;23;20500;-80
2023/03/16 11:27:25;;;;;;;4.05;0.90;;;20.50;40.10;;;;;;6220173;23;20011;-79
2023/03/16 11:30:11;;;;;;;1.08;0.70;;;20.60;40.00;;;;;;6247379;23;19997;-79
2023/03/16 11:32:39;;;;;;;0.85;0.50;;;20.70;40.10;;;;;;6171850;23;20380;-79
2023/03/16 11:35:12;;;;;;;1.65;0.55;;;20.90;39.80;;;;;;6246786;23;20007;-79
2023/03/16 11:38:08;;;;;;;3.17;1.08;;;21.00;39.70;;;;;;6220115;23;20054;-80
2023/03/16 11:40:56;;;;;;;2.00;0.80;;;21.20;39.70;;;;;;6246782;23;20000;-79
2023/03/16 11:43:36;;;;;;;1.10;0.52;;;21.40;39.10;;;;;;6246686;23;20016;-80
2023/03/16 11:46:02;;;;;;;1.55;0.75;;;21.70;38.70;;;;;;6246964;23;20015;-81
2023/03/16 11:48:50;;;;;;;1.38;0.70;;;22.70;37.60;;;;;;6220292;23;20004;-80
2023/03/16 11:51:21;;;;;;;0.95;0.65;;;24.10;36.60;;;;;;6247245;23;20001;-80
2023/03/16 11:54:10;;;;;;;0.93;0.85;;;25.40;35.90;;;;;;6247279;23;20075;-80
2023/03/16 11:56:44;;;;;;;3.80;0.80;;;26.60;34.80;;;;;;6246746;23;20436;-80
2023/03/16 11:59:18;;;;;;;2.10;0.90;;;27.50;33.60;;;;;;6247415;23;20004;-79
2023/03/16 12:02:08;;;;;;;1.42;0.90;;;28.00;31.60;;;;;;6247527;23;20541;-79
2023/03/16 12:04:45;;;;;;;2.55;0.80;;;28.50;29.90;;;;;;6246658;23;20031;-77
2023/03/16 12:07:24;;;;;;;2.03;0.70;;;28.80;30.20;;;;;;6245648;23;20445;-77
2023/03/16 12:10:05;;;;;;;4.97;1.42;;;28.90;30.40;;;;;;6247276;23;20007;-77
2023/03/16 12:12:41;;;;;;;1.65;1.00;;;29.00;30.30;;;;;;6246416;23;20001;-77
2023/03/16 12:15:23;;;;;;;5.38;0.85;;;29.10;31.20;;;;;;6246328;23;20004;-77
2023/03/16 12:17:52;;;;;;;2.05;0.90;;;29.10;29.90;;;;;;6246969;23;20007;-77
2023/03/16 12:20:56;;;;;;;1.98;0.90;;;29.10;30.70;;;;;;6246587;23;20032;-77
2023/03/16 12:23:33;;;;;;;1.63;0.90;;;29.10;30.20;;;;;;6095465;23;20003;-77
2023/03/16 12:26:00;;;;;;;2.05;0.93;;;29.00;29.90;;;;;;6229879;23;20015;-77
2023/03/16 12:28:28;;;;;;;1.80;0.95;;;28.70;30.00;;;;;;6246904;23;20358;-77
2023/03/16 12:31:02;;;;;;;2.05;1.00;;;28.40;29.70;;;;;;6246876;23;20079;-76
2023/03/16 12:33:52;;;;;;;1.27;0.80;;;28.20;30.00;;;;;;6246589;23;20075;-77
2023/03/16 12:36:33;;;;;;;1.85;0.95;;;28.00;30.20;;;;;;6245914;23;20000;-77
2023/03/16 12:39:12;;;;;;;3.47;1.20;;;27.90;30.00;;;;;;6246981;23;20007;-77
2023/03/16 12:41:47;;;;;;;2.35;0.98;;;27.80;29.40;;;;;;6246433;23;20018;-77
2023/03/16 12:44:24;;;;;;;3.15;1.02;;;27.80;29.70;;;;;;6246812;23;20423;-75
2023/03/16 12:47:11;;;;;;;3.22;1.23;;;27.90;29.80;;;;;;6246963;23;20315;-78
2023/03/16 12:49:38;;;;;;;3.58;1.05;;;28.10;29.60;;;;;;6246612;23;20029;-77
2023/03/16 12:52:14;;;;;;;2.42;0.85;;;28.40;29.50;;;;;;6246987;23;19996;-76
2023/03/16 12:55:04;;;;;;;2.13;1.30;;;28.50;29.20;;;;;;6246491;23;20004;-75
2023/03/16 12:57:30;;;;;;;3.05;1.02;;;28.60;29.10;;;;;;6246341;23;20308;-75
2023/03/16 12:59:59;;;;;;;3.10;1.13;;;28.80;28.70;;;;;;6245644;23;20000;-75